Seattle Tacoma International Airport
KSEA : now visible

Airfield :











YOU CAN JOIN US ON...

 
LOGIN :

Register | Disclaimer

   EN    FR    IT 

 









Legend :    VFR   Marginal VFR   IFR   Intensive IFR   Very Intensive IFR
Visi :
Ceiling :
>= 8 km
>= 3000ft
5 to 8 km
1000 to 3000 ft
1500m to 5 km
500 to 1000 ft
800 to 1500m
200 to 500 ft
< 800m
< 200 ft
Symbols :   Thunderstorms  Fog  Heavy snow  Heavy precipitations  Wind > 20 kt






- Airport Elevation : 433 ft
- IATA code : SEA


KSEA - Seattle Tacoma International

CURRENT METAR :
  • 250653Z 04008KT 10SM FEW050 04/M03 A3042 RMK AO2 SLP310 T00441033

EXPIRED METARs :
  • 250553Z 05005KT 10SM FEW050 05/M02 A3040 RMK AO2 SLP302 T00501017 10094 20044 51020
  • 250453Z 03007KT 10SM SCT050 06/M02 A3038 RMK AO2 SLP297 T00561017

TAF KSEA
Valid from the 25 at 06:00 until the 26 at 12:00 UTC


250527Z 2506/2612 03009KT P6SM SCT050
FM251800 03005KT P6SM SKC
FM252100 01007KT P6SM SKC
FM260400 02003KT P6SM SKC
KZSE FIR / North America



MET'MAP, your aeronautical weather chart ! - Copyright ORBIFLY December 2007 - Disclaimer

ORBIFLY MET'MAP TEAM :

Programming & Development : Alexandra Zaïnal
Concept & original design : Baudouin d'Aumeries
Assistance for programming : Marc-Olivier Méhu
Technical & hardware support : Manuel Goepfert

Contact : metmap@orbifly.com




SOURCES & CREDITS :

   NOAA       Earth
Advisory